sensor_id;sensor_type;location;lat;lon;timestamp;pressure;altitude;pressure_sealevel;temperature;humidity
3096;BME280;1558;42.700;23.360;2023-04-28T00:00:53;95535.19;;;6.82;65.01
3096;BME280;1558;42.700;23.360;2023-04-28T00:03:21;95546.19;;;6.80;65.26
3096;BME280;1558;42.700;23.360;2023-04-28T00:05:49;95536.97;;;6.73;64.96
3096;BME280;1558;42.700;23.360;2023-04-28T00:08:19;95550.50;;;6.68;66.40
3096;BME280;1558;42.700;23.360;2023-04-28T00:10:49;95542.94;;;6.56;66.37
3096;BME280;1558;42.700;23.360;2023-04-28T00:13:17;95556.44;;;6.65;66.36
3096;BME280;1558;42.700;23.360;2023-04-28T00:15:45;95537.88;;;6.55;66.09
3096;BME280;1558;42.700;23.360;2023-04-28T00:18:14;95553.56;;;6.61;66.35
3096;BME280;1558;42.700;23.360;2023-04-28T00:20:42;95520.34;;;6.35;65.80
3096;BME280;1558;42.700;23.360;2023-04-28T00:23:10;95514.69;;;6.23;66.19
3096;BME280;1558;42.700;23.360;2023-04-28T00:25:38;95540.78;;;6.45;65.94
3096;BME280;1558;42.700;23.360;2023-04-28T00:28:06;95536.63;;;6.39;66.80
3096;BME280;1558;42.700;23.360;2023-04-28T00:30:34;95557.06;;;6.48;66.44
3096;BME280;1558;42.700;23.360;2023-04-28T00:33:03;95528.59;;;6.25;66.41
3096;BME280;1558;42.700;23.360;2023-04-28T00:35:33;95559.63;;;6.40;66.60
3096;BME280;1558;42.700;23.360;2023-04-28T00:38:01;95544.34;;;6.27;67.12
3096;BME280;1558;42.700;23.360;2023-04-28T00:40:32;95557.66;;;6.32;67.24
3096;BME280;1558;42.700;23.360;2023-04-28T00:43:00;95563.59;;;6.29;67.20
3096;BME280;1558;42.700;23.360;2023-04-28T00:45:28;95567.97;;;6.25;67.33
3096;BME280;1558;42.700;23.360;2023-04-28T00:47:57;95548.91;;;6.12;67.26
3096;BME280;1558;42.700;23.360;2023-04-28T00:50:26;95545.94;;;6.00;68.07
3096;BME280;1558;42.700;23.360;2023-04-28T00:52:55;95547.41;;;6.06;68.30
3096;BME280;1558;42.700;23.360;2023-04-28T00:55:23;95569.75;;;6.16;67.67
3096;BME280;1558;42.700;23.360;2023-04-28T00:57:54;95555.44;;;6.06;68.57
3096;BME280;1558;42.700;23.360;2023-04-28T01:00:23;95548.91;;;5.99;68.25
3096;BME280;1558;42.700;23.360;2023-04-28T01:02:51;95570.81;;;6.01;68.56
3096;BME280;1558;42.700;23.360;2023-04-28T01:05:20;95535.75;;;5.70;68.94
3096;BME280;1558;42.700;23.360;2023-04-28T01:07:49;95572.78;;;5.95;69.68
3096;BME280;1558;42.700;23.360;2023-04-28T01:10:19;95573.19;;;5.89;69.26
3096;BME280;1558;42.700;23.360;2023-04-28T01:12:47;95575.63;;;5.85;69.80
3096;BME280;1558;42.700;23.360;2023-04-28T01:15:16;95580.19;;;5.85;70.05
3096;BME280;1558;42.700;23.360;2023-04-28T01:17:44;95568.84;;;5.74;69.92
3096;BME280;1558;42.700;23.360;2023-04-28T01:20:13;95577.88;;;5.78;70.16
3096;BME280;1558;42.700;23.360;2023-04-28T01:22:41;95594.22;;;5.77;70.33
3096;BME280;1558;42.700;23.360;2023-04-28T01:25:11;95561.50;;;5.66;70.30
3096;BME280;1558;42.700;23.360;2023-04-28T01:27:39;95590.19;;;5.79;70.75
3096;BME280;1558;42.700;23.360;2023-04-28T01:30:08;95591.34;;;5.73;70.94
3096;BME280;1558;42.700;23.360;2023-04-28T01:32:36;95585.28;;;5.68;71.21
3096;BME280;1558;42.700;23.360;2023-04-28T01:35:05;95555.47;;;5.42;71.72
3096;BME280;1558;42.700;23.360;2023-04-28T01:37:33;95580.59;;;5.60;71.53
3096;BME280;1558;42.700;23.360;2023-04-28T01:40:01;95579.31;;;5.57;71.74
3096;BME280;1558;42.700;23.360;2023-04-28T01:42:31;95579.81;;;5.59;72.33
3096;BME280;1558;42.700;23.360;2023-04-28T01:44:59;95571.09;;;5.54;72.34
3096;BME280;1558;42.700;23.360;2023-04-28T01:47:27;95586.25;;;5.58;72.35
3096;BME280;1558;42.700;23.360;2023-04-28T01:49:54;95568.25;;;5.45;72.30
3096;BME280;1558;42.700;23.360;2023-04-28T01:52:23;95586.84;;;5.55;72.16
3096;BME280;1558;42.700;23.360;2023-04-28T01:54:51;95539.25;;;5.20;72.52
3096;BME280;1558;42.700;23.360;2023-04-28T01:57:19;95591.09;;;5.56;72.13
3096;BME280;1558;42.700;23.360;2023-04-28T01:59:49;95571.97;;;5.49;72.29
3096;BME280;1558;42.700;23.360;2023-04-28T02:02:17;95573.34;;;5.46;72.08
3096;BME280;1558;42.700;23.360;2023-04-28T02:04:45;95589.19;;;5.57;72.44
3096;BME280;1558;42.700;23.360;2023-04-28T02:07:13;95574.63;;;5.49;71.96
3096;BME280;1558;42.700;23.360;2023-04-28T02:09:41;95582.34;;;5.51;71.84
3096;BME280;1558;42.700;23.360;2023-04-28T02:12:10;95544.53;;;5.25;72.02
3096;BME280;1558;42.700;23.360;2023-04-28T02:14:38;95596.03;;;5.49;72.10
3096;BME280;1558;42.700;23.360;2023-04-28T02:17:07;95596.03;;;5.49;71.66
3096;BME280;1558;42.700;23.360;2023-04-28T02:19:35;95595.00;;;5.45;72.21
3096;BME280;1558;42.700;23.360;2023-04-28T02:22:04;95581.22;;;5.38;72.07
3096;BME280;1558;42.700;23.360;2023-04-28T02:24:34;95591.72;;;5.34;72.41
3096;BME280;1558;42.700;23.360;2023-04-28T02:27:03;95600.44;;;5.40;72.15
3096;BME280;1558;42.700;23.360;2023-04-28T02:29:31;95610.84;;;5.41;72.30
3096;BME280;1558;42.700;23.360;2023-04-28T02:31:59;95584.75;;;5.33;72.07
3096;BME280;1558;42.700;23.360;2023-04-28T02:34:28;95592.47;;;5.35;71.93
3096;BME280;1558;42.700;23.360;2023-04-28T02:36:56;95600.25;;;5.36;72.42
3096;BME280;1558;42.700;23.360;2023-04-28T02:39:24;95608.53;;;5.35;72.22
3096;BME280;1558;42.700;23.360;2023-04-28T02:41:53;95604.34;;;5.29;72.40
3096;BME280;1558;42.700;23.360;2023-04-28T02:44:22;95614.25;;;5.28;72.81
3096;BME280;1558;42.700;23.360;2023-04-28T02:46:50;95605.53;;;5.23;72.81
3096;BME280;1558;42.700;23.360;2023-04-28T02:49:18;95620.69;;;5.27;72.93
3096;BME280;1558;42.700;23.360;2023-04-28T02:51:48;95617.59;;;5.20;73.34
3096;BME280;1558;42.700;23.360;2023-04-28T02:54:16;95605.66;;;5.13;73.38
3096;BME280;1558;42.700;23.360;2023-04-28T02:56:53;95618.38;;;5.21;73.40
3096;BME280;1558;42.700;23.360;2023-04-28T02:59:21;95625.31;;;5.22;73.58
3096;BME280;1558;42.700;23.360;2023-04-28T03:01:49;95611.59;;;5.10;73.94
3096;BME280;1558;42.700;23.360;2023-04-28T03:04:18;95625.38;;;5.17;74.37
3096;BME280;1558;42.700;23.360;2023-04-28T03:06:48;95624.94;;;5.10;73.70
3096;BME280;1558;42.700;23.360;2023-04-28T03:09:16;95630.22;;;5.15;73.59
3096;BME280;1558;42.700;23.360;2023-04-28T03:11:44;95626.47;;;5.16;73.59
3096;BME280;1558;42.700;23.360;2023-04-28T03:14:12;95625.38;;;5.17;73.83
3096;BME280;1558;42.700;23.360;2023-04-28T03:16:41;95623.81;;;5.16;73.72
3096;BME280;1558;42.700;23.360;2023-04-28T03:19:09;95625.19;;;5.13;73.68
3096;BME280;1558;42.700;23.360;2023-04-28T03:21:37;95635.56;;;5.15;74.42
3096;BME280;1558;42.700;23.360;2023-04-28T03:24:06;95638.75;;;5.17;73.57
3096;BME280;1558;42.700;23.360;2023-04-28T03:26:34;95636.38;;;5.15;73.66
3096;BME280;1558;42.700;23.360;2023-04-28T03:29:02;95646.28;;;5.15;74.28
3096;BME280;1558;42.700;23.360;2023-04-28T03:31:31;95659.56;;;5.20;73.69
3096;BME280;1558;42.700;23.360;2023-04-28T03:33:59;95656.31;;;5.23;73.41
3096;BME280;1558;42.700;23.360;2023-04-28T03:36:29;95656.91;;;5.20;73.34
3096;BME280;1558;42.700;23.360;2023-04-28T03:38:57;95612.59;;;4.95;73.69
3096;BME280;1558;42.700;23.360;2023-04-28T03:41:27;95667.78;;;5.23;73.72
3096;BME280;1558;42.700;23.360;2023-04-28T03:43:55;95608.28;;;4.75;73.18
3096;BME280;1558;42.700;23.360;2023-04-28T03:46:23;95669.09;;;5.26;73.18
3096;BME280;1558;42.700;23.360;2023-04-28T03:48:51;95679.72;;;5.31;73.11
3096;BME280;1558;42.700;23.360;2023-04-28T03:51:20;95679.47;;;5.32;73.26
3096;BME280;1558;42.700;23.360;2023-04-28T03:53:48;95641.00;;;5.10;72.64
3096;BME280;1558;42.700;23.360;2023-04-28T03:56:16;95685.69;;;5.46;72.74
3096;BME280;1558;42.700;23.360;2023-04-28T03:58:46;95673.25;;;5.37;72.26
3096;BME280;1558;42.700;23.360;2023-04-28T04:01:15;95684.94;;;5.41;71.89
3096;BME280;1558;42.700;23.360;2023-04-28T04:03:43;95698.19;;;5.51;72.32
3096;BME280;1558;42.700;23.360;2023-04-28T04:06:11;95647.28;;;5.19;71.80
3096;BME280;1558;42.700;23.360;2023-04-28T04:08:40;95698.69;;;5.53;71.72
3096;BME280;1558;42.700;23.360;2023-04-28T04:11:08;95705.31;;;5.74;71.86
3096;BME280;1558;42.700;23.360;2023-04-28T04:13:37;95686.59;;;5.74;71.34
3096;BME280;1558;42.700;23.360;2023-04-28T04:16:06;95700.34;;;5.86;70.36
3096;BME280;1558;42.700;23.360;2023-04-28T04:18:34;95697.59;;;5.91;70.00
3096;BME280;1558;42.700;23.360;2023-04-28T04:21:03;95710.22;;;6.04;69.89
3096;BME280;1558;42.700;23.360;2023-04-28T04:23:31;95716.16;;;6.93;69.02
3096;BME280;1558;42.700;23.360;2023-04-28T04:25:59;95698.25;;;8.67;67.18
3096;BME280;1558;42.700;23.360;2023-04-28T04:28:28;95713.59;;;9.97;61.79
3096;BME280;1558;42.700;23.360;2023-04-28T04:30:56;95697.44;;;10.31;59.04
3096;BME280;1558;42.700;23.360;2023-04-28T04:33:26;95716.31;;;11.32;57.28
3096;BME280;1558;42.700;23.360;2023-04-28T04:35:55;95666.63;;;11.54;55.00
3096;BME280;1558;42.700;23.360;2023-04-28T04:38:23;95703.50;;;11.79;52.84
3096;BME280;1558;42.700;23.360;2023-04-28T04:40:51;95720.53;;;11.80;52.15
3096;BME280;1558;42.700;23.360;2023-04-28T04:43:19;95715.69;;;11.65;51.89
3096;BME280;1558;42.700;23.360;2023-04-28T04:45:47;95705.25;;;11.25;51.57
3096;BME280;1558;42.700;23.360;2023-04-28T04:48:16;95713.72;;;10.60;51.66
3096;BME280;1558;42.700;23.360;2023-04-28T04:50:45;95718.19;;;10.39;52.60
3096;BME280;1558;42.700;23.360;2023-04-28T04:53:13;95732.97;;;10.07;52.91
3096;BME280;1558;42.700;23.360;2023-04-28T04:55:42;95734.59;;;10.89;52.85
3096;BME280;1558;42.700;23.360;2023-04-28T04:58:10;95732.16;;;11.42;50.87
3096;BME280;1558;42.700;23.360;2023-04-28T05:00:38;95698.53;;;11.90;50.83
3096;BME280;1558;42.700;23.360;2023-04-28T05:03:06;95733.84;;;12.79;48.87
3096;BME280;1558;42.700;23.360;2023-04-28T05:05:35;95735.38;;;12.68;48.42
3096;BME280;1558;42.700;23.360;2023-04-28T05:08:04;95732.50;;;12.53;47.40
3096;BME280;1558;42.700;23.360;2023-04-28T05:10:33;95727.78;;;12.29;47.53
3096;BME280;1558;42.700;23.360;2023-04-28T05:13:01;95738.81;;;12.24;48.54
3096;BME280;1558;42.700;23.360;2023-04-28T05:15:29;95714.41;;;11.91;48.07
3096;BME280;1558;42.700;23.360;2023-04-28T05:17:57;95733.88;;;11.47;48.33
3096;BME280;1558;42.700;23.360;2023-04-28T05:20:25;95739.16;;;11.73;49.28
3096;BME280;1558;42.700;23.360;2023-04-28T05:22:54;95734.38;;;12.19;48.66
3096;BME280;1558;42.700;23.360;2023-04-28T05:25:25;95730.88;;;12.72;47.23
3096;BME280;1558;42.700;23.360;2023-04-28T05:27:53;95735.75;;;13.12;46.54
3096;BME280;1558;42.700;23.360;2023-04-28T05:30:23;95736.00;;;13.19;45.58
3096;BME280;1558;42.700;23.360;2023-04-28T05:32:52;95737.25;;;13.01;45.24
3096;BME280;1558;42.700;23.360;2023-04-28T05:35:20;95730.88;;;13.17;44.93
3096;BME280;1558;42.700;23.360;2023-04-28T05:37:49;95736.66;;;13.28;44.14
3096;BME280;1558;42.700;23.360;2023-04-28T05:40:17;95732.59;;;13.46;44.71
3096;BME280;1558;42.700;23.360;2023-04-28T05:42:46;95728.13;;;12.93;45.48
3096;BME280;1558;42.700;23.360;2023-04-28T05:45:15;95723.13;;;13.28;45.11
3096;BME280;1558;42.700;23.360;2023-04-28T05:47:43;95733.72;;;13.81;45.31
3096;BME280;1558;42.700;23.360;2023-04-28T05:50:11;95726.88;;;13.35;44.21
3096;BME280;1558;42.700;23.360;2023-04-28T05:52:42;95715.09;;;13.55;43.62
3096;BME280;1558;42.700;23.360;2023-04-28T05:55:11;95743.00;;;13.32;43.87
3096;BME280;1558;42.700;23.360;2023-04-28T05:57:39;95730.84;;;12.93;45.31
3096;BME280;1558;42.700;23.360;2023-04-28T06:00:20;95735.75;;;13.12;44.52
3096;BME280;1558;42.700;23.360;2023-04-28T06:02:48;95733.84;;;13.73;44.67
3096;BME280;1558;42.700;23.360;2023-04-28T06:05:16;95741.59;;;14.10;43.61
3096;BME280;1558;42.700;23.360;2023-04-28T06:07:45;95741.13;;;14.20;43.73
3096;BME280;1558;42.700;23.360;2023-04-28T06:10:15;95738.69;;;13.67;43.45
3096;BME280;1558;42.700;23.360;2023-04-28T06:12:44;95730.34;;;13.84;43.63
3096;BME280;1558;42.700;23.360;2023-04-28T06:15:12;95741.25;;;14.12;43.18
3096;BME280;1558;42.700;23.360;2023-04-28T06:17:41;95731.00;;;13.93;43.54
3096;BME280;1558;42.700;23.360;2023-04-28T06:20:11;95732.81;;;13.89;43.50
3096;BME280;1558;42.700;23.360;2023-04-28T06:22:39;95730.72;;;14.10;43.47
3096;BME280;1558;42.700;23.360;2023-04-28T06:25:08;95701.16;;;13.93;43.58
3096;BME280;1558;42.700;23.360;2023-04-28T06:27:36;95735.25;;;14.31;43.43
3096;BME280;1558;42.700;23.360;2023-04-28T06:30:07;95736.84;;;14.59;41.98
3096;BME280;1558;42.700;23.360;2023-04-28T06:32:35;95723.28;;;14.75;41.61
3096;BME280;1558;42.700;23.360;2023-04-28T06:35:05;95709.72;;;14.90;40.86
3096;BME280;1558;42.700;23.360;2023-04-28T06:37:34;95732.78;;;14.13;40.77
3096;BME280;1558;42.700;23.360;2023-04-28T06:40:02;95737.59;;;13.68;42.47
3096;BME280;1558;42.700;23.360;2023-04-28T06:42:30;95732.59;;;14.46;42.26
3096;BME280;1558;42.700;23.360;2023-04-28T06:44:58;95738.16;;;14.65;41.65
3096;BME280;1558;42.700;23.360;2023-04-28T06:47:26;95716.53;;;14.29;42.10
3096;BME280;1558;42.700;23.360;2023-04-28T06:49:54;95719.56;;;14.52;42.55
3096;BME280;1558;42.700;23.360;2023-04-28T06:52:24;95734.41;;;15.13;41.08
3096;BME280;1558;42.700;23.360;2023-04-28T06:55:06;95720.75;;;15.25;41.10
3096;BME280;1558;42.700;23.360;2023-04-28T06:57:35;95731.50;;;14.35;40.64
3096;BME280;1558;42.700;23.360;2023-04-28T07:00:05;95730.78;;;14.38;41.77
3096;BME280;1558;42.700;23.360;2023-04-28T07:02:34;95736.72;;;14.56;40.44
3096;BME280;1558;42.700;23.360;2023-04-28T07:05:04;95727.53;;;14.88;41.17
3096;BME280;1558;42.700;23.360;2023-04-28T07:07:33;95732.88;;;14.84;41.29
3096;BME280;1558;42.700;23.360;2023-04-28T07:10:01;95719.97;;;14.81;40.97
3096;BME280;1558;42.700;23.360;2023-04-28T07:12:30;95726.47;;;15.51;40.95
3096;BME280;1558;42.700;23.360;2023-04-28T07:14:58;95728.50;;;15.54;39.85
3096;BME280;1558;42.700;23.360;2023-04-28T07:17:26;95709.06;;;15.40;40.34
3096;BME280;1558;42.700;23.360;2023-04-28T07:19:54;95715.81;;;15.15;40.54
3096;BME280;1558;42.700;23.360;2023-04-28T07:22:22;95736.19;;;15.52;39.95
3096;BME280;1558;42.700;23.360;2023-04-28T07:24:51;95732.66;;;16.18;39.18
3096;BME280;1558;42.700;23.360;2023-04-28T07:27:19;95719.38;;;16.51;38.33
3096;BME280;1558;42.700;23.360;2023-04-28T07:29:47;95702.53;;;15.92;37.37
3096;BME280;1558;42.700;23.360;2023-04-28T07:32:15;95698.75;;;15.46;38.66
3096;BME280;1558;42.700;23.360;2023-04-28T07:34:44;95715.22;;;15.53;38.38
3096;BME280;1558;42.700;23.360;2023-04-28T07:37:12;95709.69;;;15.81;38.38
3096;BME280;1558;42.700;23.360;2023-04-28T07:39:40;95720.84;;;16.30;37.79
3096;BME280;1558;42.700;23.360;2023-04-28T07:42:10;95662.84;;;17.09;36.77
3096;BME280;1558;42.700;23.360;2023-04-28T07:44:38;95709.22;;;17.81;35.20
3096;BME280;1558;42.700;23.360;2023-04-28T07:47:06;95723.31;;;17.15;34.41
3096;BME280;1558;42.700;23.360;2023-04-28T07:49:35;95724.97;;;16.58;35.92
3096;BME280;1558;42.700;23.360;2023-04-28T07:52:03;95714.91;;;17.23;36.13
3096;BME280;1558;42.700;23.360;2023-04-28T07:54:31;95693.72;;;17.85;34.96
3096;BME280;1558;42.700;23.360;2023-04-28T07:57:02;95709.81;;;18.19;34.12
3096;BME280;1558;42.700;23.360;2023-04-28T07:59:33;95707.09;;;17.44;34.16
3096;BME280;1558;42.700;23.360;2023-04-28T08:02:01;95717.00;;;17.79;33.86
3096;BME280;1558;42.700;23.360;2023-04-28T08:04:29;95715.19;;;17.86;34.38
3096;BME280;1558;42.700;23.360;2023-04-28T08:07:00;95722.06;;;18.03;34.33
3096;BME280;1558;42.700;23.360;2023-04-28T08:09:28;95700.97;;;17.51;34.01
3096;BME280;1558;42.700;23.360;2023-04-28T08:11:59;95698.59;;;17.27;34.84
3096;BME280;1558;42.700;23.360;2023-04-28T08:14:27;95616.28;;;16.95;34.40
3096;BME280;1558;42.700;23.360;2023-04-28T08:16:57;95709.56;;;17.76;33.95
3096;BME280;1558;42.700;23.360;2023-04-28T08:19:25;95715.38;;;17.74;33.64
3096;BME280;1558;42.700;23.360;2023-04-28T08:21:53;95712.53;;;18.19;33.65
3096;BME280;1558;42.700;23.360;2023-04-28T08:24:21;95701.13;;;17.84;32.91
3096;BME280;1558;42.700;23.360;2023-04-28T08:26:49;95711.44;;;17.26;33.91
3096;BME280;1558;42.700;23.360;2023-04-28T08:29:17;95709.09;;;17.96;33.27
3096;BME280;1558;42.700;23.360;2023-04-28T08:31:49;95698.63;;;18.02;32.46
3096;BME280;1558;42.700;23.360;2023-04-28T08:34:20;95703.94;;;17.20;33.61
3096;BME280;1558;42.700;23.360;2023-04-28T08:36:49;95705.47;;;18.18;33.79
3096;BME280;1558;42.700;23.360;2023-04-28T08:39:18;95696.06;;;18.42;32.59
3096;BME280;1558;42.700;23.360;2023-04-28T08:41:48;95695.03;;;17.94;32.54
3096;BME280;1558;42.700;23.360;2023-04-28T08:44:17;95659.41;;;18.13;32.07
3096;BME280;1558;42.700;23.360;2023-04-28T08:46:45;95697.44;;;18.29;33.27
3096;BME280;1558;42.700;23.360;2023-04-28T08:49:17;95691.84;;;18.18;33.10
3096;BME280;1558;42.700;23.360;2023-04-28T08:51:50;95689.00;;;18.71;33.08
3096;BME280;1558;42.700;23.360;2023-04-28T08:54:25;95682.56;;;18.53;32.81
3096;BME280;1558;42.700;23.360;2023-04-28T08:56:55;95686.47;;;18.52;31.55
3096;BME280;1558;42.700;23.360;2023-04-28T08:59:23;95687.94;;;18.46;32.70
3096;BME280;1558;42.700;23.360;2023-04-28T09:01:53;95693.81;;;17.66;32.57
3096;BME280;1558;42.700;23.360;2023-04-28T09:04:21;95694.47;;;18.11;32.73
3096;BME280;1558;42.700;23.360;2023-04-28T09:06:51;95669.91;;;17.85;33.70
3096;BME280;1558;42.700;23.360;2023-04-28T09:09:20;95677.53;;;17.99;32.05
3096;BME280;1558;42.700;23.360;2023-04-28T09:11:53;95685.13;;;18.72;32.04
3096;BME280;1558;42.700;23.360;2023-04-28T09:14:22;95644.19;;;18.12;30.63
3096;BME280;1558;42.700;23.360;2023-04-28T09:16:52;95666.06;;;18.46;31.98
3096;BME280;1558;42.700;23.360;2023-04-28T09:19:21;95668.34;;;18.73;31.28
3096;BME280;1558;42.700;23.360;2023-04-28T09:21:51;95656.16;;;19.44;30.83
3096;BME280;1558;42.700;23.360;2023-04-28T09:24:28;95664.28;;;19.85;30.22
3096;BME280;1558;42.700;23.360;2023-04-28T09:26:57;95660.97;;;19.18;30.02
3096;BME280;1558;42.700;23.360;2023-04-28T09:29:27;95644.63;;;19.25;29.89
3096;BME280;1558;42.700;23.360;2023-04-28T09:32:11;95627.63;;;19.45;30.27
3096;BME280;1558;42.700;23.360;2023-04-28T09:34:43;95659.28;;;19.03;29.88
3096;BME280;1558;42.700;23.360;2023-04-28T09:37:18;95652.19;;;18.98;30.79
3096;BME280;1558;42.700;23.360;2023-04-28T09:39:48;95648.53;;;18.17;30.46
3096;BME280;1558;42.700;23.360;2023-04-28T09:42:33;95614.72;;;19.02;30.98
3096;BME280;1558;42.700;23.360;2023-04-28T09:45:03;95638.69;;;19.16;29.87
3096;BME280;1558;42.700;23.360;2023-04-28T09:47:33;95634.41;;;18.78;31.22
3096;BME280;1558;42.700;23.360;2023-04-28T09:50:03;95643.50;;;19.29;29.06
3096;BME280;1558;42.700;23.360;2023-04-28T09:52:34;95635.44;;;19.03;30.03
3096;BME280;1558;42.700;23.360;2023-04-28T09:55:04;95629.69;;;19.63;29.41
3096;BME280;1558;42.700;23.360;2023-04-28T09:57:33;95624.00;;;19.89;29.25
3096;BME280;1558;42.700;23.360;2023-04-28T10:00:04;95629.41;;;19.27;28.69
3096;BME280;1558;42.700;23.360;2023-04-28T10:02:34;95633.00;;;18.91;29.25
3096;BME280;1558;42.700;23.360;2023-04-28T10:05:06;95610.63;;;19.26;29.71
3096;BME280;1558;42.700;23.360;2023-04-28T10:07:44;95609.88;;;19.29;28.37
3096;BME280;1558;42.700;23.360;2023-04-28T10:10:13;95612.25;;;19.34;28.31
3096;BME280;1558;42.700;23.360;2023-04-28T10:12:52;95615.78;;;19.92;28.19
3096;BME280;1558;42.700;23.360;2023-04-28T10:15:22;95609.13;;;19.32;28.92
3096;BME280;1558;42.700;23.360;2023-04-28T10:17:50;95606.94;;;18.64;29.74
3096;BME280;1558;42.700;23.360;2023-04-28T10:20:20;95613.09;;;18.94;29.92
3096;BME280;1558;42.700;23.360;2023-04-28T10:22:57;95614.66;;;18.95;29.50
3096;BME280;1558;42.700;23.360;2023-04-28T10:25:34;95602.72;;;19.14;28.62
3096;BME280;1558;42.700;23.360;2023-04-28T10:28:08;95577.78;;;18.75;28.46
3096;BME280;1558;42.700;23.360;2023-04-28T10:30:36;95593.31;;;19.11;28.52
3096;BME280;1558;42.700;23.360;2023-04-28T10:33:23;95576.19;;;19.76;27.82
3096;BME280;1558;42.700;23.360;2023-04-28T10:35:58;95590.81;;;20.01;27.28
3096;BME280;1558;42.700;23.360;2023-04-28T10:38:27;95587.47;;;20.39;26.62
3096;BME280;1558;42.700;23.360;2023-04-28T10:40:55;95585.63;;;21.00;27.00
3096;BME280;1558;42.700;23.360;2023-04-28T10:43:41;95572.31;;;21.33;26.42
3096;BME280;1558;42.700;23.360;2023-04-28T10:46:10;95579.41;;;21.27;26.38
3096;BME280;1558;42.700;23.360;2023-04-28T10:48:59;95536.25;;;20.92;25.82
3096;BME280;1558;42.700;23.360;2023-04-28T10:51:30;95575.44;;;20.86;26.26
3096;BME280;1558;42.700;23.360;2023-04-28T10:54:22;95574.53;;;20.36;27.20
3096;BME280;1558;42.700;23.360;2023-04-28T10:57:20;95565.66;;;21.06;25.75
3096;BME280;1558;42.700;23.360;2023-04-28T10:59:50;95560.13;;;21.63;25.65
3096;BME280;1558;42.700;23.360;2023-04-28T11:02:38;95562.44;;;21.85;25.60
3096;BME280;1558;42.700;23.360;2023-04-28T11:05:12;95544.66;;;22.21;24.35
3096;BME280;1558;42.700;23.360;2023-04-28T11:11:21;95565.16;;;21.99;24.35
3096;BME280;1558;42.700;23.360;2023-04-28T11:13:51;95541.44;;;22.34;24.37
3096;BME280;1558;42.700;23.360;2023-04-28T11:16:21;95550.03;;;22.43;22.41
3096;BME280;1558;42.700;23.360;2023-04-28T11:18:58;95540.75;;;22.84;22.33
3096;BME280;1558;42.700;23.360;2023-04-28T11:21:30;95547.84;;;22.09;22.26
3096;BME280;1558;42.700;23.360;2023-04-28T11:23:58;95538.16;;;22.67;23.13
3096;BME280;1558;42.700;23.360;2023-04-28T11:26:28;95531.50;;;22.54;23.08
3096;BME280;1558;42.700;23.360;2023-04-28T11:28:56;95531.53;;;21.42;24.15
3096;BME280;1558;42.700;23.360;2023-04-28T11:31:48;95532.72;;;21.24;23.97
3096;BME280;1558;42.700;23.360;2023-04-28T11:34:19;95522.53;;;21.28;25.47
3096;BME280;1558;42.700;23.360;2023-04-28T11:36:47;95515.88;;;21.25;25.30
3096;BME280;1558;42.700;23.360;2023-04-28T11:39:15;95486.47;;;21.29;25.88
3096;BME280;1558;42.700;23.360;2023-04-28T11:41:45;95487.25;;;21.26;25.98
3096;BME280;1558;42.700;23.360;2023-04-28T11:44:14;95517.44;;;21.37;25.76
3096;BME280;1558;42.700;23.360;2023-04-28T11:46:46;95508.81;;;21.00;26.62
3096;BME280;1558;42.700;23.360;2023-04-28T11:49:17;95496.28;;;20.77;26.55
3096;BME280;1558;42.700;23.360;2023-04-28T11:51:46;95513.78;;;21.75;26.15
3096;BME280;1558;42.700;23.360;2023-04-28T11:54:20;95509.44;;;21.95;25.61
3096;BME280;1558;42.700;23.360;2023-04-28T11:56:50;95504.38;;;21.76;25.98
3096;BME280;1558;42.700;23.360;2023-04-28T11:59:23;95469.97;;;21.43;25.53
3096;BME280;1558;42.700;23.360;2023-04-28T12:01:54;95497.38;;;21.54;25.64
3096;BME280;1558;42.700;23.360;2023-04-28T12:04:27;95497.00;;;21.52;26.42
3096;BME280;1558;42.700;23.360;2023-04-28T12:07:00;95496.91;;;22.60;25.73
3096;BME280;1558;42.700;23.360;2023-04-28T12:09:29;95432.59;;;21.74;24.86
3096;BME280;1558;42.700;23.360;2023-04-28T12:11:59;95495.91;;;21.14;26.46
3096;BME280;1558;42.700;23.360;2023-04-28T12:14:29;95484.91;;;20.54;27.12
3096;BME280;1558;42.700;23.360;2023-04-28T12:16:59;95480.16;;;20.23;27.17
3096;BME280;1558;42.700;23.360;2023-04-28T12:19:27;95474.25;;;20.17;27.63
3096;BME280;1558;42.700;23.360;2023-04-28T12:22:00;95453.47;;;20.02;27.76
3096;BME280;1558;42.700;23.360;2023-04-28T12:24:29;95462.97;;;20.22;27.58
3096;BME280;1558;42.700;23.360;2023-04-28T12:27:15;95368.03;;;19.40;28.56
3096;BME280;1558;42.700;23.360;2023-04-28T12:29:44;95473.31;;;19.68;28.76
3096;BME280;1558;42.700;23.360;2023-04-28T12:32:13;95453.47;;;19.92;29.08
3096;BME280;1558;42.700;23.360;2023-04-28T12:34:44;95463.63;;;19.91;28.52
3096;BME280;1558;42.700;23.360;2023-04-28T12:37:12;95456.41;;;19.44;28.37
3096;BME280;1558;42.700;23.360;2023-04-28T12:39:41;95456.06;;;19.56;29.02
3096;BME280;1558;42.700;23.360;2023-04-28T12:42:10;95457.56;;;19.47;29.21
3096;BME280;1558;42.700;23.360;2023-04-28T12:44:39;95449.22;;;19.22;30.81
3096;BME280;1558;42.700;23.360;2023-04-28T12:47:08;95445.84;;;19.39;29.87
3096;BME280;1558;42.700;23.360;2023-04-28T12:49:37;95435.88;;;19.14;29.78
3096;BME280;1558;42.700;23.360;2023-04-28T12:52:05;95452.44;;;19.35;30.11
3096;BME280;1558;42.700;23.360;2023-04-28T12:54:35;95408.88;;;19.05;30.43
3096;BME280;1558;42.700;23.360;2023-04-28T12:57:04;95438.16;;;19.77;29.74
3096;BME280;1558;42.700;23.360;2023-04-28T12:59:32;95421.78;;;19.94;29.71
3096;BME280;1558;42.700;23.360;2023-04-28T13:02:01;95431.53;;;19.02;30.11
3096;BME280;1558;42.700;23.360;2023-04-28T13:04:30;95435.53;;;19.19;30.51
3096;BME280;1558;42.700;23.360;2023-04-28T13:06:59;95428.63;;;19.42;30.10
3096;BME280;1558;42.700;23.360;2023-04-28T13:09:27;95411.47;;;18.77;30.27
3096;BME280;1558;42.700;23.360;2023-04-28T13:11:55;95424.91;;;18.49;30.63
3096;BME280;1558;42.700;23.360;2023-04-28T13:14:25;95414.84;;;18.56;30.61
3096;BME280;1558;42.700;23.360;2023-04-28T13:16:53;95417.69;;;18.26;30.75
3096;BME280;1558;42.700;23.360;2023-04-28T13:19:23;95415.81;;;18.38;31.38
3096;BME280;1558;42.700;23.360;2023-04-28T13:21:51;95423.88;;;18.23;30.28
3096;BME280;1558;42.700;23.360;2023-04-28T13:24:19;95405.88;;;18.15;31.22
3096;BME280;1558;42.700;23.360;2023-04-28T13:26:50;95415.78;;;17.90;31.79
3096;BME280;1558;42.700;23.360;2023-04-28T13:29:18;95417.03;;;18.00;32.37
3096;BME280;1558;42.700;23.360;2023-04-28T13:31:47;95418.22;;;18.02;32.71